sensor_id;sensor_type;location;lat;lon;timestamp;P1;durP1;ratioP1;P2;durP2;ratioP2
8594;SDS011;4335;48.860;9.198;2023-05-16T00:01:22;11.97;;;10.43;;
8594;SDS011;4335;48.860;9.198;2023-05-16T00:03:52;11.13;;;9.90;;
8594;SDS011;4335;48.860;9.198;2023-05-16T00:06:19;11.83;;;9.53;;
8594;SDS011;4335;48.860;9.198;2023-05-16T00:08:46;11.17;;;10.07;;
8594;SDS011;4335;48.860;9.198;2023-05-16T00:11:15;11.40;;;10.30;;
8594;SDS011;4335;48.860;9.198;2023-05-16T00:13:42;12.60;;;10.43;;
8594;SDS011;4335;48.860;9.198;2023-05-16T00:16:14;13.07;;;11.57;;
8594;SDS011;4335;48.860;9.198;2023-05-16T00:18:41;14.73;;;11.07;;
8594;SDS011;4335;48.860;9.198;2023-05-16T00:21:12;12.57;;;11.27;;
8594;SDS011;4335;48.860;9.198;2023-05-16T00:23:39;12.00;;;10.80;;
8594;SDS011;4335;48.860;9.198;2023-05-16T00:26:06;12.90;;;11.60;;
8594;SDS011;4335;48.860;9.198;2023-05-16T00:28:36;12.80;;;11.60;;
8594;SDS011;4335;48.860;9.198;2023-05-16T00:31:03;12.50;;;11.30;;
8594;SDS011;4335;48.860;9.198;2023-05-16T00:33:38;12.90;;;11.10;;
8594;SDS011;4335;48.860;9.198;2023-05-16T00:36:05;12.90;;;11.60;;
8594;SDS011;4335;48.860;9.198;2023-05-16T00:38:33;12.83;;;11.53;;
8594;SDS011;4335;48.860;9.198;2023-05-16T00:41:00;12.90;;;11.67;;
8594;SDS011;4335;48.860;9.198;2023-05-16T00:43:28;12.07;;;10.77;;
8594;SDS011;4335;48.860;9.198;2023-05-16T00:45:55;12.93;;;11.53;;
8594;SDS011;4335;48.860;9.198;2023-05-16T00:48:28;13.87;;;12.37;;
8594;SDS011;4335;48.860;9.198;2023-05-16T00:50:55;12.50;;;11.10;;
8594;SDS011;4335;48.860;9.198;2023-05-16T00:53:22;13.07;;;11.77;;
8594;SDS011;4335;48.860;9.198;2023-05-16T00:55:49;12.17;;;10.90;;
8594;SDS011;4335;48.860;9.198;2023-05-16T00:58:17;13.17;;;11.40;;
8594;SDS011;4335;48.860;9.198;2023-05-16T01:00:46;12.13;;;10.93;;
8594;SDS011;4335;48.860;9.198;2023-05-16T01:03:13;15.87;;;13.27;;
8594;SDS011;4335;48.860;9.198;2023-05-16T01:05:40;14.50;;;13.00;;
8594;SDS011;4335;48.860;9.198;2023-05-16T01:08:07;14.37;;;12.87;;
8594;SDS011;4335;48.860;9.198;2023-05-16T01:10:45;16.40;;;12.40;;
8594;SDS011;4335;48.860;9.198;2023-05-16T01:13:23;14.13;;;12.57;;
8594;SDS011;4335;48.860;9.198;2023-05-16T01:15:59;14.70;;;13.20;;
8594;SDS011;4335;48.860;9.198;2023-05-16T01:18:31;17.27;;;14.97;;
8594;SDS011;4335;48.860;9.198;2023-05-16T01:21:03;17.07;;;15.03;;
8594;SDS011;4335;48.860;9.198;2023-05-16T01:23:46;16.17;;;14.47;;
8594;SDS011;4335;48.860;9.198;2023-05-16T01:26:21;16.93;;;15.07;;
8594;SDS011;4335;48.860;9.198;2023-05-16T01:28:50;16.00;;;14.27;;
8594;SDS011;4335;48.860;9.198;2023-05-16T01:31:18;16.20;;;14.50;;
8594;SDS011;4335;48.860;9.198;2023-05-16T01:33:45;16.00;;;14.30;;
8594;SDS011;4335;48.860;9.198;2023-05-16T01:36:21;15.90;;;14.23;;
8594;SDS011;4335;48.860;9.198;2023-05-16T01:38:55;15.33;;;13.73;;
8594;SDS011;4335;48.860;9.198;2023-05-16T01:41:28;16.80;;;14.83;;
8594;SDS011;4335;48.860;9.198;2023-05-16T01:44:24;16.93;;;15.17;;
8594;SDS011;4335;48.860;9.198;2023-05-16T01:46:55;17.33;;;15.23;;
8594;SDS011;4335;48.860;9.198;2023-05-16T01:49:26;16.30;;;14.60;;
8594;SDS011;4335;48.860;9.198;2023-05-16T01:52:03;17.97;;;16.17;;
8594;SDS011;4335;48.860;9.198;2023-05-16T01:54:35;18.53;;;16.53;;
8594;SDS011;4335;48.860;9.198;2023-05-16T01:57:05;20.90;;;17.73;;
8594;SDS011;4335;48.860;9.198;2023-05-16T01:59:35;18.80;;;15.53;;
8594;SDS011;4335;48.860;9.198;2023-05-16T02:02:03;22.07;;;17.63;;
8594;SDS011;4335;48.860;9.198;2023-05-16T02:04:30;21.33;;;18.47;;
8594;SDS011;4335;48.860;9.198;2023-05-16T02:07:06;22.77;;;17.90;;
8594;SDS011;4335;48.860;9.198;2023-05-16T02:09:33;22.30;;;18.87;;
8594;SDS011;4335;48.860;9.198;2023-05-16T02:11:59;22.47;;;17.93;;
8594;SDS011;4335;48.860;9.198;2023-05-16T02:14:30;21.33;;;18.97;;
8594;SDS011;4335;48.860;9.198;2023-05-16T02:17:00;23.03;;;19.80;;
8594;SDS011;4335;48.860;9.198;2023-05-16T02:19:26;23.83;;;19.50;;
8594;SDS011;4335;48.860;9.198;2023-05-16T02:21:56;25.90;;;20.97;;
8594;SDS011;4335;48.860;9.198;2023-05-16T02:24:23;23.27;;;19.40;;
8594;SDS011;4335;48.860;9.198;2023-05-16T02:26:53;24.47;;;20.20;;
8594;SDS011;4335;48.860;9.198;2023-05-16T02:29:20;23.03;;;19.10;;
8594;SDS011;4335;48.860;9.198;2023-05-16T02:31:53;25.07;;;19.23;;
8594;SDS011;4335;48.860;9.198;2023-05-16T02:34:20;24.90;;;20.40;;
8594;SDS011;4335;48.860;9.198;2023-05-16T02:36:47;25.00;;;19.50;;
8594;SDS011;4335;48.860;9.198;2023-05-16T02:39:22;24.47;;;20.20;;
8594;SDS011;4335;48.860;9.198;2023-05-16T02:41:56;27.67;;;20.80;;
8594;SDS011;4335;48.860;9.198;2023-05-16T02:44:23;25.73;;;20.67;;
8594;SDS011;4335;48.860;9.198;2023-05-16T02:46:50;28.27;;;20.47;;
8594;SDS011;4335;48.860;9.198;2023-05-16T02:49:18;29.53;;;22.57;;
8594;SDS011;4335;48.860;9.198;2023-05-16T02:51:44;30.10;;;22.57;;
8594;SDS011;4335;48.860;9.198;2023-05-16T02:54:24;30.63;;;23.47;;
8594;SDS011;4335;48.860;9.198;2023-05-16T02:56:50;27.50;;;21.27;;
8594;SDS011;4335;48.860;9.198;2023-05-16T02:59:17;36.20;;;24.87;;
8594;SDS011;4335;48.860;9.198;2023-05-16T03:01:44;26.57;;;20.90;;
8594;SDS011;4335;48.860;9.198;2023-05-16T03:04:11;34.03;;;25.27;;
8594;SDS011;4335;48.860;9.198;2023-05-16T03:06:41;31.87;;;24.03;;
8594;SDS011;4335;48.860;9.198;2023-05-16T03:09:08;31.00;;;23.07;;
8594;SDS011;4335;48.860;9.198;2023-05-16T03:11:35;30.80;;;22.87;;
8594;SDS011;4335;48.860;9.198;2023-05-16T03:14:04;30.60;;;23.10;;
8594;SDS011;4335;48.860;9.198;2023-05-16T03:16:30;32.17;;;25.23;;
8594;SDS011;4335;48.860;9.198;2023-05-16T03:19:03;32.80;;;23.30;;
8594;SDS011;4335;48.860;9.198;2023-05-16T03:21:33;34.03;;;23.60;;
8594;SDS011;4335;48.860;9.198;2023-05-16T03:24:03;35.10;;;26.33;;
8594;SDS011;4335;48.860;9.198;2023-05-16T03:26:30;31.97;;;24.27;;
8594;SDS011;4335;48.860;9.198;2023-05-16T03:28:57;36.63;;;26.87;;
8594;SDS011;4335;48.860;9.198;2023-05-16T03:31:30;35.37;;;25.10;;
8594;SDS011;4335;48.860;9.198;2023-05-16T03:34:00;36.57;;;26.33;;
8594;SDS011;4335;48.860;9.198;2023-05-16T03:36:30;39.40;;;27.73;;
8594;SDS011;4335;48.860;9.198;2023-05-16T03:38:56;36.37;;;25.87;;
8594;SDS011;4335;48.860;9.198;2023-05-16T03:41:24;36.50;;;26.17;;
8594;SDS011;4335;48.860;9.198;2023-05-16T03:43:54;38.57;;;27.93;;
8594;SDS011;4335;48.860;9.198;2023-05-16T03:46:21;38.63;;;28.67;;
8594;SDS011;4335;48.860;9.198;2023-05-16T03:48:57;43.90;;;29.47;;
8594;SDS011;4335;48.860;9.198;2023-05-16T03:51:24;38.83;;;27.10;;
8594;SDS011;4335;48.860;9.198;2023-05-16T03:53:54;40.17;;;29.17;;
8594;SDS011;4335;48.860;9.198;2023-05-16T03:56:20;39.53;;;28.70;;
8594;SDS011;4335;48.860;9.198;2023-05-16T03:58:48;41.63;;;29.13;;
8594;SDS011;4335;48.860;9.198;2023-05-16T04:01:23;40.33;;;30.07;;
8594;SDS011;4335;48.860;9.198;2023-05-16T04:03:53;42.13;;;30.13;;
8594;SDS011;4335;48.860;9.198;2023-05-16T04:06:20;42.10;;;29.10;;
8594;SDS011;4335;48.860;9.198;2023-05-16T04:08:50;45.57;;;30.30;;
8594;SDS011;4335;48.860;9.198;2023-05-16T04:11:16;39.27;;;29.17;;
8594;SDS011;4335;48.860;9.198;2023-05-16T04:13:43;41.70;;;29.60;;
8594;SDS011;4335;48.860;9.198;2023-05-16T04:16:13;43.63;;;29.93;;
8594;SDS011;4335;48.860;9.198;2023-05-16T04:18:43;38.80;;;27.27;;
8594;SDS011;4335;48.860;9.198;2023-05-16T04:21:10;43.83;;;31.03;;
8594;SDS011;4335;48.860;9.198;2023-05-16T04:23:39;41.83;;;28.93;;
8594;SDS011;4335;48.860;9.198;2023-05-16T04:26:06;38.83;;;28.53;;
8594;SDS011;4335;48.860;9.198;2023-05-16T04:28:32;43.00;;;30.80;;
8594;SDS011;4335;48.860;9.198;2023-05-16T04:31:02;39.77;;;29.00;;
8594;SDS011;4335;48.860;9.198;2023-05-16T04:33:32;39.70;;;28.03;;
8594;SDS011;4335;48.860;9.198;2023-05-16T04:35:59;41.93;;;29.73;;
8594;SDS011;4335;48.860;9.198;2023-05-16T04:38:26;45.47;;;29.53;;
8594;SDS011;4335;48.860;9.198;2023-05-16T04:40:53;41.03;;;28.17;;
8594;SDS011;4335;48.860;9.198;2023-05-16T04:43:26;40.23;;;27.13;;
8594;SDS011;4335;48.860;9.198;2023-05-16T04:45:52;38.80;;;27.40;;
8594;SDS011;4335;48.860;9.198;2023-05-16T04:48:26;39.07;;;28.00;;
8594;SDS011;4335;48.860;9.198;2023-05-16T04:50:53;38.30;;;27.50;;
8594;SDS011;4335;48.860;9.198;2023-05-16T04:53:23;38.03;;;28.27;;
8594;SDS011;4335;48.860;9.198;2023-05-16T04:55:50;39.80;;;27.03;;
8594;SDS011;4335;48.860;9.198;2023-05-16T04:58:17;39.40;;;27.33;;
8594;SDS011;4335;48.860;9.198;2023-05-16T05:00:44;33.43;;;25.63;;
8594;SDS011;4335;48.860;9.198;2023-05-16T05:03:17;37.17;;;25.40;;
8594;SDS011;4335;48.860;9.198;2023-05-16T05:05:44;34.50;;;25.37;;
8594;SDS011;4335;48.860;9.198;2023-05-16T05:08:15;37.50;;;25.67;;
8594;SDS011;4335;48.860;9.198;2023-05-16T05:10:43;32.10;;;23.90;;
8594;SDS011;4335;48.860;9.198;2023-05-16T05:13:16;32.57;;;23.60;;
8594;SDS011;4335;48.860;9.198;2023-05-16T05:15:43;34.87;;;24.17;;
8594;SDS011;4335;48.860;9.198;2023-05-16T05:18:10;35.77;;;25.50;;
8594;SDS011;4335;48.860;9.198;2023-05-16T05:20:36;38.27;;;28.43;;
8594;SDS011;4335;48.860;9.198;2023-05-16T05:23:06;37.30;;;26.87;;
8594;SDS011;4335;48.860;9.198;2023-05-16T05:25:34;39.77;;;26.50;;
8594;SDS011;4335;48.860;9.198;2023-05-16T05:28:01;36.93;;;27.17;;
8594;SDS011;4335;48.860;9.198;2023-05-16T05:30:31;35.10;;;25.80;;
8594;SDS011;4335;48.860;9.198;2023-05-16T05:32:58;37.63;;;27.63;;
8594;SDS011;4335;48.860;9.198;2023-05-16T05:35:27;34.93;;;26.87;;
8594;SDS011;4335;48.860;9.198;2023-05-16T05:37:57;33.67;;;24.67;;
8594;SDS011;4335;48.860;9.198;2023-05-16T05:40:24;33.60;;;25.63;;
8594;SDS011;4335;48.860;9.198;2023-05-16T05:42:51;35.87;;;26.20;;
8594;SDS011;4335;48.860;9.198;2023-05-16T05:45:21;37.37;;;26.00;;
8594;SDS011;4335;48.860;9.198;2023-05-16T05:47:57;35.73;;;25.53;;
8594;SDS011;4335;48.860;9.198;2023-05-16T05:50:24;35.57;;;26.97;;
8594;SDS011;4335;48.860;9.198;2023-05-16T05:52:50;36.77;;;26.73;;
8594;SDS011;4335;48.860;9.198;2023-05-16T05:55:20;35.90;;;26.17;;
8594;SDS011;4335;48.860;9.198;2023-05-16T05:57:51;33.63;;;24.87;;
8594;SDS011;4335;48.860;9.198;2023-05-16T06:00:18;30.83;;;21.47;;
8594;SDS011;4335;48.860;9.198;2023-05-16T06:02:45;31.30;;;22.47;;
8594;SDS011;4335;48.860;9.198;2023-05-16T06:05:13;30.43;;;21.50;;
8594;SDS011;4335;48.860;9.198;2023-05-16T06:07:42;29.73;;;21.00;;
8594;SDS011;4335;48.860;9.198;2023-05-16T06:10:12;30.47;;;22.20;;
8594;SDS011;4335;48.860;9.198;2023-05-16T06:12:39;27.37;;;20.80;;
8594;SDS011;4335;48.860;9.198;2023-05-16T06:15:09;30.13;;;22.03;;
8594;SDS011;4335;48.860;9.198;2023-05-16T06:17:42;29.30;;;21.37;;
8594;SDS011;4335;48.860;9.198;2023-05-16T06:20:12;27.40;;;20.53;;
8594;SDS011;4335;48.860;9.198;2023-05-16T06:22:42;26.73;;;20.50;;
8594;SDS011;4335;48.860;9.198;2023-05-16T06:25:09;26.83;;;20.80;;
8594;SDS011;4335;48.860;9.198;2023-05-16T06:27:44;27.13;;;19.13;;
8594;SDS011;4335;48.860;9.198;2023-05-16T06:30:12;28.77;;;21.50;;
8594;SDS011;4335;48.860;9.198;2023-05-16T06:32:49;28.63;;;20.60;;
8594;SDS011;4335;48.860;9.198;2023-05-16T06:35:16;27.07;;;21.57;;
8594;SDS011;4335;48.860;9.198;2023-05-16T06:37:50;30.50;;;21.63;;
8594;SDS011;4335;48.860;9.198;2023-05-16T06:40:16;29.73;;;21.30;;
8594;SDS011;4335;48.860;9.198;2023-05-16T06:42:43;27.37;;;20.53;;
8594;SDS011;4335;48.860;9.198;2023-05-16T06:45:14;25.67;;;20.03;;
8594;SDS011;4335;48.860;9.198;2023-05-16T06:47:41;27.03;;;19.93;;
8594;SDS011;4335;48.860;9.198;2023-05-16T06:50:08;26.90;;;18.73;;
8594;SDS011;4335;48.860;9.198;2023-05-16T06:52:35;22.70;;;18.43;;
8594;SDS011;4335;48.860;9.198;2023-05-16T06:55:01;26.10;;;19.60;;
8594;SDS011;4335;48.860;9.198;2023-05-16T06:57:31;25.97;;;18.37;;
8594;SDS011;4335;48.860;9.198;2023-05-16T07:00:14;25.70;;;18.50;;
8594;SDS011;4335;48.860;9.198;2023-05-16T07:02:42;22.10;;;17.87;;
8594;SDS011;4335;48.860;9.198;2023-05-16T07:05:11;22.33;;;18.53;;
8594;SDS011;4335;48.860;9.198;2023-05-16T07:07:41;21.87;;;17.47;;
8594;SDS011;4335;48.860;9.198;2023-05-16T07:10:10;22.37;;;16.57;;
8594;SDS011;4335;48.860;9.198;2023-05-16T07:12:43;17.73;;;14.70;;
8594;SDS011;4335;48.860;9.198;2023-05-16T07:15:10;20.23;;;15.83;;
8594;SDS011;4335;48.860;9.198;2023-05-16T07:17:41;22.03;;;17.17;;
8594;SDS011;4335;48.860;9.198;2023-05-16T07:20:11;22.10;;;16.57;;
8594;SDS011;4335;48.860;9.198;2023-05-16T07:22:42;17.70;;;14.67;;
8594;SDS011;4335;48.860;9.198;2023-05-16T07:25:08;16.10;;;13.53;;
8594;SDS011;4335;48.860;9.198;2023-05-16T07:27:40;18.30;;;12.90;;
8594;SDS011;4335;48.860;9.198;2023-05-16T07:30:21;15.50;;;12.63;;
8594;SDS011;4335;48.860;9.198;2023-05-16T07:32:54;14.50;;;12.20;;
8594;SDS011;4335;48.860;9.198;2023-05-16T07:35:21;19.77;;;13.27;;
8594;SDS011;4335;48.860;9.198;2023-05-16T07:37:54;17.07;;;12.87;;
8594;SDS011;4335;48.860;9.198;2023-05-16T07:40:20;13.70;;;11.37;;
8594;SDS011;4335;48.860;9.198;2023-05-16T07:42:54;13.83;;;11.37;;
8594;SDS011;4335;48.860;9.198;2023-05-16T07:45:22;12.57;;;10.90;;
8594;SDS011;4335;48.860;9.198;2023-05-16T07:47:52;14.53;;;11.97;;
8594;SDS011;4335;48.860;9.198;2023-05-16T07:50:18;13.20;;;11.37;;
8594;SDS011;4335;48.860;9.198;2023-05-16T07:52:45;13.57;;;11.13;;
8594;SDS011;4335;48.860;9.198;2023-05-16T07:55:12;10.83;;;9.73;;
8594;SDS011;4335;48.860;9.198;2023-05-16T07:57:46;12.00;;;10.17;;
8594;SDS011;4335;48.860;9.198;2023-05-16T08:00:13;12.83;;;10.63;;
8594;SDS011;4335;48.860;9.198;2023-05-16T08:02:47;15.40;;;12.80;;
8594;SDS011;4335;48.860;9.198;2023-05-16T08:05:14;11.63;;;9.73;;
8594;SDS011;4335;48.860;9.198;2023-05-16T08:07:41;11.90;;;9.80;;
8594;SDS011;4335;48.860;9.198;2023-05-16T08:10:20;11.43;;;9.57;;
8594;SDS011;4335;48.860;9.198;2023-05-16T08:12:54;9.60;;;8.60;;
8594;SDS011;4335;48.860;9.198;2023-05-16T08:15:20;11.30;;;10.10;;
8594;SDS011;4335;48.860;9.198;2023-05-16T08:17:51;13.30;;;11.20;;
8594;SDS011;4335;48.860;9.198;2023-05-16T08:20:19;12.70;;;10.57;;
8594;SDS011;4335;48.860;9.198;2023-05-16T08:22:55;12.87;;;11.07;;
8594;SDS011;4335;48.860;9.198;2023-05-16T08:25:22;14.30;;;12.53;;
8594;SDS011;4335;48.860;9.198;2023-05-16T08:27:49;13.43;;;12.03;;
8594;SDS011;4335;48.860;9.198;2023-05-16T08:30:26;15.27;;;12.97;;
8594;SDS011;4335;48.860;9.198;2023-05-16T08:32:54;18.80;;;13.53;;
8594;SDS011;4335;48.860;9.198;2023-05-16T08:35:30;16.00;;;12.97;;
8594;SDS011;4335;48.860;9.198;2023-05-16T08:37:59;17.43;;;13.70;;
8594;SDS011;4335;48.860;9.198;2023-05-16T08:40:27;15.73;;;13.47;;
8594;SDS011;4335;48.860;9.198;2023-05-16T08:42:56;16.27;;;13.73;;
8594;SDS011;4335;48.860;9.198;2023-05-16T08:45:23;17.27;;;13.20;;
8594;SDS011;4335;48.860;9.198;2023-05-16T08:47:52;18.60;;;14.40;;
8594;SDS011;4335;48.860;9.198;2023-05-16T08:50:24;17.33;;;14.17;;
8594;SDS011;4335;48.860;9.198;2023-05-16T08:52:52;21.30;;;13.97;;
8594;SDS011;4335;48.860;9.198;2023-05-16T08:55:19;19.90;;;15.10;;
8594;SDS011;4335;48.860;9.198;2023-05-16T08:57:50;18.77;;;14.90;;
8594;SDS011;4335;48.860;9.198;2023-05-16T09:00:19;16.27;;;13.50;;
8594;SDS011;4335;48.860;9.198;2023-05-16T09:02:50;18.90;;;14.60;;
8594;SDS011;4335;48.860;9.198;2023-05-16T09:05:18;23.73;;;15.30;;
8594;SDS011;4335;48.860;9.198;2023-05-16T09:07:45;20.00;;;15.40;;
8594;SDS011;4335;48.860;9.198;2023-05-16T09:10:11;19.27;;;15.07;;
8594;SDS011;4335;48.860;9.198;2023-05-16T09:12:41;18.20;;;14.90;;
8594;SDS011;4335;48.860;9.198;2023-05-16T09:15:08;19.10;;;14.83;;
8594;SDS011;4335;48.860;9.198;2023-05-16T09:17:36;20.60;;;15.90;;
8594;SDS011;4335;48.860;9.198;2023-05-16T09:20:07;21.27;;;15.90;;
8594;SDS011;4335;48.860;9.198;2023-05-16T09:22:50;22.00;;;15.47;;
8594;SDS011;4335;48.860;9.198;2023-05-16T09:25:28;20.13;;;16.37;;
8594;SDS011;4335;48.860;9.198;2023-05-16T09:27:59;20.00;;;16.33;;
8594;SDS011;4335;48.860;9.198;2023-05-16T09:30:27;20.60;;;17.23;;
8594;SDS011;4335;48.860;9.198;2023-05-16T09:32:56;20.77;;;16.23;;
8594;SDS011;4335;48.860;9.198;2023-05-16T09:35:29;22.37;;;16.80;;
8594;SDS011;4335;48.860;9.198;2023-05-16T09:37:57;19.47;;;15.70;;
8594;SDS011;4335;48.860;9.198;2023-05-16T09:40:26;23.27;;;16.73;;
8594;SDS011;4335;48.860;9.198;2023-05-16T09:43:01;20.80;;;16.60;;
8594;SDS011;4335;48.860;9.198;2023-05-16T09:45:29;23.07;;;17.13;;
8594;SDS011;4335;48.860;9.198;2023-05-16T09:48:03;21.90;;;16.80;;
8594;SDS011;4335;48.860;9.198;2023-05-16T09:50:31;20.93;;;16.60;;
8594;SDS011;4335;48.860;9.198;2023-05-16T09:53:06;21.27;;;18.03;;
8594;SDS011;4335;48.860;9.198;2023-05-16T09:55:36;22.70;;;17.33;;
8594;SDS011;4335;48.860;9.198;2023-05-16T09:58:03;21.57;;;16.93;;
8594;SDS011;4335;48.860;9.198;2023-05-16T10:00:31;22.87;;;18.53;;
8594;SDS011;4335;48.860;9.198;2023-05-16T10:02:59;22.37;;;18.23;;
8594;SDS011;4335;48.860;9.198;2023-05-16T10:05:27;20.97;;;17.30;;
8594;SDS011;4335;48.860;9.198;2023-05-16T10:07:54;19.53;;;16.23;;
8594;SDS011;4335;48.860;9.198;2023-05-16T10:10:23;22.33;;;16.53;;
8594;SDS011;4335;48.860;9.198;2023-05-16T10:12:51;18.93;;;15.33;;
8594;SDS011;4335;48.860;9.198;2023-05-16T10:15:20;21.63;;;15.83;;
8594;SDS011;4335;48.860;9.198;2023-05-16T10:17:48;21.97;;;16.93;;
8594;SDS011;4335;48.860;9.198;2023-05-16T10:20:18;19.17;;;15.47;;
8594;SDS011;4335;48.860;9.198;2023-05-16T10:22:46;21.57;;;16.13;;
8594;SDS011;4335;48.860;9.198;2023-05-16T10:25:19;22.70;;;16.13;;
8594;SDS011;4335;48.860;9.198;2023-05-16T10:27:54;21.97;;;15.37;;
8594;SDS011;4335;48.860;9.198;2023-05-16T10:30:26;20.37;;;15.57;;
8594;SDS011;4335;48.860;9.198;2023-05-16T10:32:53;22.53;;;16.40;;
8594;SDS011;4335;48.860;9.198;2023-05-16T10:35:21;20.20;;;14.97;;
8594;SDS011;4335;48.860;9.198;2023-05-16T10:37:51;16.87;;;13.07;;
8594;SDS011;4335;48.860;9.198;2023-05-16T10:40:19;15.20;;;12.87;;
8594;SDS011;4335;48.860;9.198;2023-05-16T10:42:54;16.33;;;13.10;;
8594;SDS011;4335;48.860;9.198;2023-05-16T10:45:25;18.27;;;14.07;;
8594;SDS011;4335;48.860;9.198;2023-05-16T10:47:52;16.53;;;12.80;;
8594;SDS011;4335;48.860;9.198;2023-05-16T10:50:29;19.07;;;13.10;;
8594;SDS011;4335;48.860;9.198;2023-05-16T10:56:06;16.70;;;12.93;;
8594;SDS011;4335;48.860;9.198;2023-05-16T10:58:41;16.90;;;12.53;;
8594;SDS011;4335;48.860;9.198;2023-05-16T11:01:19;14.07;;;12.00;;
8594;SDS011;4335;48.860;9.198;2023-05-16T11:04:03;14.30;;;11.67;;
8594;SDS011;4335;48.860;9.198;2023-05-16T11:06:32;15.87;;;10.67;;
8594;SDS011;4335;48.860;9.198;2023-05-16T11:09:06;14.90;;;10.97;;
8594;SDS011;4335;48.860;9.198;2023-05-16T11:11:44;14.70;;;11.53;;
8594;SDS011;4335;48.860;9.198;2023-05-16T11:14:21;12.53;;;9.53;;
8594;SDS011;4335;48.860;9.198;2023-05-16T11:17:01;12.10;;;8.83;;
8594;SDS011;4335;48.860;9.198;2023-05-16T11:19:32;13.37;;;9.40;;
8594;SDS011;4335;48.860;9.198;2023-05-16T11:24:56;10.47;;;7.70;;
8594;SDS011;4335;48.860;9.198;2023-05-16T11:27:25;10.03;;;7.27;;
8594;SDS011;4335;48.860;9.198;2023-05-16T11:29:54;10.10;;;7.83;;
8594;SDS011;4335;48.860;9.198;2023-05-16T11:32:23;11.27;;;8.03;;
8594;SDS011;4335;48.860;9.198;2023-05-16T11:34:50;10.47;;;7.47;;
8594;SDS011;4335;48.860;9.198;2023-05-16T11:37:17;9.63;;;8.37;;
8594;SDS011;4335;48.860;9.198;2023-05-16T11:39:50;9.70;;;8.10;;
8594;SDS011;4335;48.860;9.198;2023-05-16T11:42:19;9.23;;;7.53;;
8594;SDS011;4335;48.860;9.198;2023-05-16T11:44:46;9.80;;;7.83;;
8594;SDS011;4335;48.860;9.198;2023-05-16T11:47:13;10.30;;;8.00;;
8594;SDS011;4335;48.860;9.198;2023-05-16T11:49:40;9.00;;;7.43;;
8594;SDS011;4335;48.860;9.198;2023-05-16T11:52:07;11.10;;;7.73;;
8594;SDS011;4335;48.860;9.198;2023-05-16T11:54:35;9.03;;;7.37;;
8594;SDS011;4335;48.860;9.198;2023-05-16T11:57:04;8.10;;;7.10;;
8594;SDS011;4335;48.860;9.198;2023-05-16T11:59:31;8.37;;;7.07;;
8594;SDS011;4335;48.860;9.198;2023-05-16T12:02:02;8.37;;;6.63;;
8594;SDS011;4335;48.860;9.198;2023-05-16T12:04:34;7.80;;;6.60;;
8594;SDS011;4335;48.860;9.198;2023-05-16T12:07:02;6.90;;;5.93;;
8594;SDS011;4335;48.860;9.198;2023-05-16T12:09:29;6.83;;;6.13;;
8594;SDS011;4335;48.860;9.198;2023-05-16T12:11:56;5.70;;;4.93;;
8594;SDS011;4335;48.860;9.198;2023-05-16T12:14:23;7.33;;;5.53;;
8594;SDS011;4335;48.860;9.198;2023-05-16T12:16:53;5.70;;;5.03;;
8594;SDS011;4335;48.860;9.198;2023-05-16T12:19:20;6.07;;;5.33;;
8594;SDS011;4335;48.860;9.198;2023-05-16T12:21:54;5.40;;;4.70;;
8594;SDS011;4335;48.860;9.198;2023-05-16T12:24:21;6.30;;;4.60;;
8594;SDS011;4335;48.860;9.198;2023-05-16T12:26:55;4.53;;;3.83;;
8594;SDS011;4335;48.860;9.198;2023-05-16T12:29:23;4.43;;;4.03;;
8594;SDS011;4335;48.860;9.198;2023-05-16T12:31:51;4.83;;;3.87;;
8594;SDS011;4335;48.860;9.198;2023-05-16T12:34:18;6.87;;;3.73;;
8594;SDS011;4335;48.860;9.198;2023-05-16T12:36:52;5.40;;;4.60;;
8594;SDS011;4335;48.860;9.198;2023-05-16T12:39:19;5.70;;;3.80;;
8594;SDS011;4335;48.860;9.198;2023-05-16T12:41:47;4.67;;;4.00;;
8594;SDS011;4335;48.860;9.198;2023-05-16T12:44:18;4.27;;;3.87;;
8594;SDS011;4335;48.860;9.198;2023-05-16T12:46:45;4.00;;;3.60;;
8594;SDS011;4335;48.860;9.198;2023-05-16T12:49:18;4.57;;;3.70;;
8594;SDS011;4335;48.860;9.198;2023-05-16T12:51:49;3.77;;;3.27;;
8594;SDS011;4335;48.860;9.198;2023-05-16T12:54:17;4.00;;;3.70;;
8594;SDS011;4335;48.860;9.198;2023-05-16T12:56:46;3.83;;;3.43;;
8594;SDS011;4335;48.860;9.198;2023-05-16T12:59:15;4.30;;;3.63;;
8594;SDS011;4335;48.860;9.198;2023-05-16T13:01:44;4.13;;;3.33;;
8594;SDS011;4335;48.860;9.198;2023-05-16T13:04:11;3.63;;;3.33;;
8594;SDS011;4335;48.860;9.198;2023-05-16T13:06:42;4.60;;;3.37;;
8594;SDS011;4335;48.860;9.198;2023-05-16T13:09:12;3.27;;;2.63;;
8594;SDS011;4335;48.860;9.198;2023-05-16T13:11:46;3.10;;;2.77;;
8594;SDS011;4335;48.860;9.198;2023-05-16T13:14:13;3.73;;;3.10;;
8594;SDS011;4335;48.860;9.198;2023-05-16T13:16:40;4.00;;;2.93;;
8594;SDS011;4335;48.860;9.198;2023-05-16T13:19:07;3.37;;;3.07;;
8594;SDS011;4335;48.860;9.198;2023-05-16T13:21:33;6.30;;;2.83;;
8594;SDS011;4335;48.860;9.198;2023-05-16T13:24:00;3.03;;;2.77;;
8594;SDS011;4335;48.860;9.198;2023-05-16T13:26:27;4.83;;;2.90;;
8594;SDS011;4335;48.860;9.198;2023-05-16T13:28:55;5.63;;;3.03;;
8594;SDS011;4335;48.860;9.198;2023-05-16T13:31:22;5.40;;;3.00;;
8594;SDS011;4335;48.860;9.198;2023-05-16T13:34:01;3.13;;;2.83;;
8594;SDS011;4335;48.860;9.198;2023-05-16T13:36:29;3.03;;;2.80;;
8594;SDS011;4335;48.860;9.198;2023-05-16T13:38:59;2.90;;;2.67;;
8594;SDS011;4335;48.860;9.198;2023-05-16T13:41:26;4.47;;;3.60;;
8594;SDS011;4335;48.860;9.198;2023-05-16T13:43:56;3.90;;;3.60;;
8594;SDS011;4335;48.860;9.198;2023-05-16T13:46:23;3.73;;;3.00;;
8594;SDS011;4335;48.860;9.198;2023-05-16T13:48:50;3.00;;;2.70;;
8594;SDS011;4335;48.860;9.198;2023-05-16T13:51:16;2.97;;;2.70;;
8594;SDS011;4335;48.860;9.198;2023-05-16T13:53:49;2.80;;;2.53;;
8594;SDS011;4335;48.860;9.198;2023-05-16T13:56:16;4.63;;;2.63;;
8594;SDS011;4335;48.860;9.198;2023-05-16T13:58:43;2.97;;;2.77;;
8594;SDS011;4335;48.860;9.198;2023-05-16T14:01:12;6.70;;;3.40;;
8594;SDS011;4335;48.860;9.198;2023-05-16T14:03:41;4.20;;;3.73;;
8594;SDS011;4335;48.860;9.198;2023-05-16T14:06:08;3.97;;;2.90;;
8594;SDS011;4335;48.860;9.198;2023-05-16T14:08:35;4.03;;;3.17;;
8594;SDS011;4335;48.860;9.198;2023-05-16T14:11:02;4.83;;;3.00;;
8594;SDS011;4335;48.860;9.198;2023-05-16T14:13:31;4.40;;;3.60;;
8594;SDS011;4335;48.860;9.198;2023-05-16T14:15:58;6.77;;;3.47;;
8594;SDS011;4335;48.860;9.198;2023-05-16T14:18:31;6.43;;;3.53;;
8594;SDS011;4335;48.860;9.198;2023-05-16T14:21:01;4.57;;;3.47;;
8594;SDS011;4335;48.860;9.198;2023-05-16T14:23:30;4.00;;;2.90;;
8594;SDS011;4335;48.860;9.198;2023-05-16T14:25:57;3.73;;;2.83;;
8594;SDS011;4335;48.860;9.198;2023-05-16T14:28:23;3.30;;;2.60;;
8594;SDS011;4335;48.860;9.198;2023-05-16T14:30:53;3.63;;;2.57;;
8594;SDS011;4335;48.860;9.198;2023-05-16T14:33:20;2.70;;;2.50;;
8594;SDS011;4335;48.860;9.198;2023-05-16T14:35:50;3.70;;;2.40;;
8594;SDS011;4335;48.860;9.198;2023-05-16T14:38:17;5.13;;;2.10;;
8594;SDS011;4335;48.860;9.198;2023-05-16T14:40:44;3.90;;;3.17;;
8594;SDS011;4335;48.860;9.198;2023-05-16T14:43:17;2.50;;;2.30;;
8594;SDS011;4335;48.860;9.198;2023-05-16T14:45:46;2.40;;;2.17;;
8594;SDS011;4335;48.860;9.198;2023-05-16T14:48:16;2.27;;;1.90;;
8594;SDS011;4335;48.860;9.198;2023-05-16T14:50:42;2.00;;;1.80;;
8594;SDS011;4335;48.860;9.198;2023-05-16T14:53:16;2.30;;;2.10;;
8594;SDS011;4335;48.860;9.198;2023-05-16T14:55:42;2.50;;;1.97;;
8594;SDS011;4335;48.860;9.198;2023-05-16T14:58:09;2.00;;;1.80;;
8594;SDS011;4335;48.860;9.198;2023-05-16T15:00:39;5.13;;;3.07;;
8594;SDS011;4335;48.860;9.198;2023-05-16T15:03:06;3.10;;;2.13;;
8594;SDS011;4335;48.860;9.198;2023-05-16T15:08:22;4.13;;;2.10;;
8594;SDS011;4335;48.860;9.198;2023-05-16T15:10:58;3.03;;;2.00;;
8594;SDS011;4335;48.860;9.198;2023-05-16T15:13:32;3.93;;;1.90;;
8594;SDS011;4335;48.860;9.198;2023-05-16T15:16:01;2.07;;;1.70;;
8594;SDS011;4335;48.860;9.198;2023-05-16T15:18:28;3.20;;;2.20;;